Time;durP1;ratioP1;P1;durP2;ratioP2;P2;SDS_P1;SDS_P2;PMS_P1;PMS_P2;Temp;Humidity;BMP_temperature;BMP_pressure;BME280_temperature;BME280_humidity;BME280_pressure;Samples;Min_cycle;Max_cycle;Signal;HPM_P1;HPM_P2
2022/10/31 00:02:03;;;;;;;10.03;6.87;;;13.90;99.90;;;;;;6212318;23;20259;-67
2022/10/31 00:04:28;;;;;;;9.00;7.17;;;13.90;99.90;;;;;;6212303;23;20155;-66
2022/10/31 00:06:54;;;;;;;10.60;7.10;;;13.80;99.90;;;;;;6224038;23;20173;-66
2022/10/31 00:09:19;;;;;;;8.30;7.23;;;13.80;99.90;;;;;;6211932;23;20224;-67
2022/10/31 00:11:45;;;;;;;7.20;6.57;;;13.80;99.90;;;;;;6212382;23;20174;-67
2022/10/31 00:14:10;;;;;;;7.70;7.00;;;13.70;99.90;;;;;;6212316;23;20155;-67
2022/10/31 00:16:36;;;;;;;9.17;7.00;;;13.70;99.90;;;;;;6224250;23;20230;-67
2022/10/31 00:19:05;;;;;;;8.47;7.70;;;13.60;99.90;;;;;;6224181;23;20175;-68
2022/10/31 00:21:32;;;;;;;10.00;7.50;;;13.60;99.90;;;;;;6223926;23;20507;-67
2022/10/31 00:23:58;;;;;;;7.33;6.73;;;13.60;99.90;;;;;;6212343;23;20158;-68
2022/10/31 00:26:26;;;;;;;7.70;6.83;;;13.50;99.90;;;;;;6224037;23;20265;-68
2022/10/31 00:28:51;;;;;;;8.43;6.60;;;13.50;99.90;;;;;;6212127;23;20182;-67
2022/10/31 00:31:17;;;;;;;11.00;7.20;;;13.40;99.90;;;;;;6223460;22;20183;-67
2022/10/31 00:33:43;;;;;;;9.57;7.93;;;13.40;99.90;;;;;;6212113;23;20234;-67
2022/10/31 00:36:15;;;;;;;10.83;7.53;;;13.40;99.90;;;;;;6223963;23;20606;-67
2022/10/31 00:38:42;;;;;;;13.50;8.50;;;13.40;99.90;;;;;;6223555;23;20170;-67
2022/10/31 00:41:07;;;;;;;8.63;7.80;;;13.40;99.90;;;;;;6223396;23;20171;-67
2022/10/31 00:43:33;;;;;;;8.90;8.07;;;13.50;99.90;;;;;;6223936;23;20522;-67
2022/10/31 00:45:59;;;;;;;9.03;7.60;;;13.50;99.90;;;;;;6212373;23;20277;-67
2022/10/31 00:48:24;;;;;;;15.67;8.70;;;13.50;99.90;;;;;;6223794;23;20147;-67
2022/10/31 00:50:50;;;;;;;11.20;7.97;;;13.60;99.90;;;;;;6223035;23;20174;-67
2022/10/31 00:53:15;;;;;;;12.17;8.93;;;13.60;99.90;;;;;;6223703;23;20151;-68
2022/10/31 00:55:41;;;;;;;9.23;7.90;;;13.70;99.90;;;;;;6212204;23;20155;-67
2022/10/31 00:58:07;;;;;;;8.93;7.97;;;13.80;99.90;;;;;;6212092;23;20155;-67
2022/10/31 01:00:33;;;;;;;13.43;8.40;;;13.90;99.90;;;;;;6222686;23;20519;-68
2022/10/31 01:02:58;;;;;;;10.00;7.40;;;13.90;99.90;;;;;;6223771;23;20489;-68
2022/10/31 01:05:24;;;;;;;14.83;8.57;;;14.00;99.90;;;;;;6223638;23;20147;-68
2022/10/31 01:07:49;;;;;;;9.57;8.47;;;14.10;99.90;;;;;;6223829;23;20510;-67
2022/10/31 01:10:15;;;;;;;14.07;7.80;;;14.20;99.90;;;;;;6223747;23;20190;-68
2022/10/31 01:12:43;;;;;;;8.07;7.27;;;14.20;99.90;;;;;;6223901;23;20685;-66
2022/10/31 01:15:11;;;;;;;13.27;8.80;;;14.20;99.90;;;;;;6212067;23;20532;-67
2022/10/31 01:17:37;;;;;;;9.00;8.03;;;14.20;99.90;;;;;;6224149;23;20155;-68
2022/10/31 01:20:05;;;;;;;12.00;9.23;;;14.20;99.90;;;;;;6211445;23;20241;-68
2022/10/31 01:22:31;;;;;;;10.27;7.50;;;14.20;99.90;;;;;;6213319;23;20175;-66
2022/10/31 01:24:57;;;;;;;9.43;8.10;;;14.10;99.90;;;;;;6212351;23;20472;-66
2022/10/31 01:27:22;;;;;;;13.73;7.20;;;14.10;99.90;;;;;;6212060;23;20147;-66
2022/10/31 01:29:48;;;;;;;8.93;8.03;;;14.00;99.90;;;;;;6211480;23;20213;-67
2022/10/31 01:32:13;;;;;;;12.23;8.27;;;14.00;99.90;;;;;;6223457;23;20182;-67
2022/10/31 01:34:39;;;;;;;8.83;8.07;;;13.90;99.90;;;;;;6223391;23;20602;-66
2022/10/31 01:37:04;;;;;;;8.80;7.90;;;13.80;99.90;;;;;;6211846;23;20299;-66
2022/10/31 01:39:30;;;;;;;8.00;7.20;;;13.70;99.90;;;;;;6223054;23;20258;-67
2022/10/31 01:41:56;;;;;;;7.23;6.60;;;13.60;99.90;;;;;;6211727;23;20190;-67
2022/10/31 01:44:21;;;;;;;8.80;6.93;;;13.60;99.90;;;;;;6223448;23;20143;-67
2022/10/31 01:47:04;;;;;;;9.10;8.20;;;13.60;99.90;;;;;;6223548;23;20579;-66
2022/10/31 01:49:45;;;;;;;15.30;7.73;;;13.50;99.90;;;;;;6223136;23;20143;-67
2022/10/31 01:52:21;;;;;;;9.67;7.77;;;13.50;99.90;;;;;;6223592;23;20677;-67
2022/10/31 01:55:08;;;;;;;8.80;7.90;;;13.40;99.90;;;;;;6223392;23;20146;-67
2022/10/31 01:57:36;;;;;;;8.83;7.97;;;13.30;99.90;;;;;;6223610;23;20135;-66
2022/10/31 02:00:07;;;;;;;9.70;8.77;;;13.20;99.90;;;;;;6222137;23;20166;-66
2022/10/31 02:02:33;;;;;;;11.23;8.13;;;13.10;99.90;;;;;;6224511;23;20150;-66
2022/10/31 02:05:01;;;;;;;10.13;8.20;;;13.00;99.90;;;;;;6225620;23;20178;-67
2022/10/31 02:07:38;;;;;;;10.83;8.00;;;13.00;99.90;;;;;;6225300;23;20143;-67
2022/10/31 02:10:04;;;;;;;8.57;7.10;;;13.00;99.90;;;;;;6225011;23;20227;-67
2022/10/31 02:12:31;;;;;;;7.80;6.73;;;12.90;99.90;;;;;;6225400;23;20174;-67
2022/10/31 02:14:58;;;;;;;8.13;7.43;;;12.80;99.90;;;;;;6225318;23;20151;-66
2022/10/31 02:17:24;;;;;;;8.20;7.40;;;12.80;99.90;;;;;;6225017;23;20177;-66
2022/10/31 02:20:02;;;;;;;10.93;7.80;;;12.70;99.90;;;;;;6224922;23;20614;-66
2022/10/31 02:22:54;;;;;;;8.23;7.43;;;12.70;99.90;;;;;;6225045;23;20237;-66
2022/10/31 02:25:54;;;;;;;8.00;7.30;;;12.60;99.90;;;;;;6225543;23;20214;-66
2022/10/31 02:28:37;;;;;;;9.23;8.33;;;12.60;99.90;;;;;;6213452;23;20146;-67
2022/10/31 02:31:08;;;;;;;9.27;8.37;;;12.50;99.90;;;;;;6224648;23;20182;-67
2022/10/31 02:33:45;;;;;;;7.87;7.23;;;12.50;99.90;;;;;;6225013;23;20146;-68
2022/10/31 02:36:45;;;;;;;9.80;6.80;;;12.50;99.90;;;;;;6225100;23;20153;-67
2022/10/31 02:39:27;;;;;;;8.13;6.97;;;12.40;99.90;;;;;;6173894;23;20557;-68
2022/10/31 02:42:26;;;;;;;12.67;7.87;;;12.40;99.90;;;;;;6225347;23;20163;-68
2022/10/31 02:44:54;;;;;;;8.37;7.10;;;12.40;99.90;;;;;;6225094;23;20645;-68
2022/10/31 02:47:32;;;;;;;8.90;8.10;;;12.30;99.90;;;;;;6225225;23;20634;-68
2022/10/31 02:50:19;;;;;;;9.40;7.53;;;12.20;99.90;;;;;;6224638;23;20146;-67
2022/10/31 02:52:49;;;;;;;8.23;7.23;;;12.20;99.90;;;;;;6224964;23;20163;-68
2022/10/31 02:55:30;;;;;;;10.77;7.57;;;12.20;99.90;;;;;;6213395;23;20468;-67
2022/10/31 02:58:18;;;;;;;10.87;7.97;;;12.10;99.90;;;;;;6224799;23;20180;-68
2022/10/31 03:01:06;;;;;;;9.57;7.67;;;12.10;99.90;;;;;;6210045;23;20303;-68
2022/10/31 03:03:55;;;;;;;9.30;8.40;;;12.00;99.90;;;;;;6224619;23;20138;-68
2022/10/31 03:06:32;;;;;;;13.70;8.43;;;12.00;99.90;;;;;;6213562;23;20147;-67
2022/10/31 03:09:24;;;;;;;10.00;8.50;;;12.00;99.90;;;;;;6224712;23;20150;-66
2022/10/31 03:11:59;;;;;;;9.53;8.10;;;12.00;99.90;;;;;;6212841;23;20222;-67
2022/10/31 03:14:49;;;;;;;13.20;8.03;;;12.00;99.90;;;;;;6224216;23;20139;-66
2022/10/31 03:17:25;;;;;;;15.87;8.30;;;12.00;99.90;;;;;;6199565;23;20155;-67
2022/10/31 03:19:55;;;;;;;8.73;7.93;;;11.90;99.90;;;;;;6223342;23;20194;-67
2022/10/31 03:22:23;;;;;;;12.20;8.63;;;11.90;99.90;;;;;;6224589;23;20618;-66
2022/10/31 03:24:50;;;;;;;10.13;9.23;;;11.90;99.90;;;;;;6224440;23;20147;-67
2022/10/31 03:27:26;;;;;;;10.00;9.00;;;11.90;99.90;;;;;;6224251;23;20481;-66
2022/10/31 03:29:56;;;;;;;9.47;8.47;;;11.90;99.90;;;;;;6224259;23;20138;-66
2022/10/31 03:32:31;;;;;;;9.47;8.00;;;12.00;99.90;;;;;;6225266;23;20182;-67
2022/10/31 03:34:59;;;;;;;10.93;8.23;;;12.00;99.90;;;;;;6224378;23;20146;-68
2022/10/31 03:37:28;;;;;;;12.47;8.17;;;12.00;99.90;;;;;;6214266;23;20591;-68
2022/10/31 03:39:55;;;;;;;11.67;9.23;;;12.00;99.90;;;;;;6224485;23;20174;-68
2022/10/31 03:42:25;;;;;;;12.83;8.27;;;12.00;99.90;;;;;;6224188;23;20213;-68
2022/10/31 03:44:55;;;;;;;11.50;8.00;;;12.00;99.90;;;;;;6213116;23;20166;-68
2022/10/31 03:47:21;;;;;;;10.20;8.97;;;12.00;99.90;;;;;;6224195;23;20477;-68
2022/10/31 03:49:47;;;;;;;10.33;9.43;;;12.00;99.90;;;;;;6224073;23;20150;-67
2022/10/31 03:52:42;;;;;;;12.10;9.27;;;12.00;99.90;;;;;;6212390;23;20649;-68
2022/10/31 03:55:34;;;;;;;11.77;7.60;;;11.90;99.90;;;;;;6224799;23;20147;-68
2022/10/31 03:58:07;;;;;;;9.83;8.30;;;11.80;99.90;;;;;;6212556;23;20237;-68
2022/10/31 04:00:37;;;;;;;8.90;8.10;;;11.80;99.90;;;;;;6211918;23;20266;-68
2022/10/31 04:03:14;;;;;;;8.97;8.17;;;11.70;99.90;;;;;;6224544;23;20174;-68
2022/10/31 04:05:42;;;;;;;9.07;8.10;;;11.70;99.90;;;;;;6224426;23;20222;-68
2022/10/31 04:08:11;;;;;;;12.07;8.83;;;11.70;99.90;;;;;;6224085;23;20161;-69
2022/10/31 04:10:40;;;;;;;9.30;8.47;;;11.70;99.90;;;;;;6223725;23;20220;-68
2022/10/31 04:13:13;;;;;;;10.97;8.07;;;11.70;99.90;;;;;;6224560;23;20474;-68
2022/10/31 04:15:42;;;;;;;10.07;8.87;;;11.80;99.90;;;;;;6224012;23;20470;-68
2022/10/31 04:18:07;;;;;;;11.50;8.67;;;11.80;99.90;;;;;;6224086;23;20178;-68
2022/10/31 04:20:36;;;;;;;9.27;7.73;;;11.80;99.90;;;;;;6223900;23;20178;-67
2022/10/31 04:23:02;;;;;;;9.90;7.53;;;11.90;99.90;;;;;;6212617;23;20612;-68
2022/10/31 04:25:28;;;;;;;10.30;7.40;;;11.90;99.90;;;;;;6212224;23;20155;-68
2022/10/31 04:27:54;;;;;;;9.80;8.80;;;11.80;99.90;;;;;;6222353;23;20139;-68
2022/10/31 04:30:19;;;;;;;9.43;8.37;;;11.80;99.90;;;;;;6223678;23;20157;-67
2022/10/31 04:32:45;;;;;;;8.70;7.17;;;11.80;99.90;;;;;;6224165;23;20131;-68
2022/10/31 04:35:11;;;;;;;9.80;8.20;;;11.80;99.90;;;;;;6222320;23;20157;-67
2022/10/31 04:37:36;;;;;;;12.07;7.23;;;11.70;99.90;;;;;;6212441;23;20155;-68
2022/10/31 04:40:03;;;;;;;7.87;6.77;;;11.70;99.90;;;;;;6223614;23;20170;-68
2022/10/31 04:42:31;;;;;;;9.20;8.10;;;11.70;99.90;;;;;;6223559;23;20167;-67
2022/10/31 04:44:57;;;;;;;8.63;7.73;;;11.70;99.90;;;;;;6212187;23;20634;-68
2022/10/31 04:47:22;;;;;;;11.57;9.00;;;11.60;99.90;;;;;;6223564;23;20147;-68
2022/10/31 04:49:48;;;;;;;11.00;7.93;;;11.60;99.90;;;;;;6223499;23;20163;-68
2022/10/31 04:52:14;;;;;;;8.87;7.63;;;11.60;99.90;;;;;;6223708;23;20171;-68
2022/10/31 04:54:39;;;;;;;10.90;7.90;;;11.60;99.90;;;;;;6223757;23;20194;-68
2022/10/31 04:57:05;;;;;;;8.97;7.70;;;11.60;99.90;;;;;;6223672;23;20151;-68
2022/10/31 04:59:30;;;;;;;14.47;8.43;;;11.60;99.90;;;;;;6223377;23;20171;-68
2022/10/31 05:01:56;;;;;;;8.77;7.87;;;11.70;99.90;;;;;;6211967;23;20178;-68
2022/10/31 05:04:22;;;;;;;12.70;8.03;;;11.70;99.90;;;;;;6224182;23;20174;-68
2022/10/31 05:06:47;;;;;;;9.40;8.53;;;11.70;99.90;;;;;;6223578;23;20150;-67
2022/10/31 05:09:13;;;;;;;9.00;8.20;;;11.70;99.90;;;;;;6223345;23;20486;-68
2022/10/31 05:11:38;;;;;;;8.83;7.93;;;11.70;99.90;;;;;;6223508;23;20567;-68
2022/10/31 05:14:04;;;;;;;10.60;7.53;;;11.70;99.90;;;;;;6223802;23;20229;-67
2022/10/31 05:16:30;;;;;;;9.87;7.63;;;11.70;99.90;;;;;;6211761;23;20159;-68
2022/10/31 05:18:55;;;;;;;9.17;6.97;;;11.70;99.90;;;;;;6223588;23;20147;-67
2022/10/31 05:21:21;;;;;;;10.63;8.13;;;11.70;99.90;;;;;;6223336;23;20281;-68
2022/10/31 05:23:46;;;;;;;11.10;7.10;;;11.70;99.90;;;;;;6212228;23;20746;-67
2022/10/31 05:26:12;;;;;;;11.37;7.40;;;11.70;99.90;;;;;;6223810;23;20207;-67
2022/10/31 05:28:38;;;;;;;9.17;7.17;;;11.70;99.90;;;;;;6212043;23;20163;-68
2022/10/31 05:31:03;;;;;;;11.97;7.30;;;11.70;99.90;;;;;;6211498;23;20533;-68
2022/10/31 05:33:29;;;;;;;8.77;7.50;;;11.70;99.90;;;;;;6222581;23;20625;-67
2022/10/31 05:35:54;;;;;;;11.03;8.17;;;11.60;99.90;;;;;;6223941;23;20158;-67
2022/10/31 05:38:20;;;;;;;15.63;8.23;;;11.60;99.90;;;;;;6225438;23;20223;-67
2022/10/31 05:40:46;;;;;;;13.63;8.90;;;11.60;99.90;;;;;;6213609;23;20186;-67
2022/10/31 05:43:11;;;;;;;12.27;8.00;;;11.60;99.90;;;;;;6225492;23;20146;-67
2022/10/31 05:45:37;;;;;;;11.77;8.43;;;11.60;99.90;;;;;;6225394;23;20225;-67
2022/10/31 05:48:03;;;;;;;9.80;7.73;;;11.60;99.90;;;;;;6225927;23;20471;-67
2022/10/31 05:50:30;;;;;;;8.90;8.07;;;11.50;99.90;;;;;;6225493;23;20170;-68
2022/10/31 05:53:02;;;;;;;9.33;7.50;;;11.50;99.90;;;;;;6225386;23;20170;-68
2022/10/31 05:55:28;;;;;;;11.87;8.37;;;11.50;99.90;;;;;;6225436;23;20139;-68
2022/10/31 05:57:54;;;;;;;13.03;7.67;;;11.50;99.90;;;;;;6225673;23;20170;-68
2022/10/31 06:00:21;;;;;;;8.83;8.03;;;11.50;99.90;;;;;;6213204;23;20519;-69
2022/10/31 06:02:47;;;;;;;11.23;8.47;;;11.50;99.90;;;;;;6225032;23;20147;-67
2022/10/31 06:05:13;;;;;;;10.00;7.00;;;11.50;99.90;;;;;;6213749;23;20154;-68
2022/10/31 06:07:39;;;;;;;10.97;8.57;;;11.50;99.90;;;;;;6213445;23;20158;-68
2022/10/31 06:10:07;;;;;;;10.13;8.40;;;11.50;99.90;;;;;;6224909;23;20151;-68
2022/10/31 06:12:37;;;;;;;10.63;8.97;;;11.50;99.90;;;;;;6225253;23;20158;-68
2022/10/31 06:15:05;;;;;;;13.03;8.93;;;11.50;99.90;;;;;;6225391;23;20209;-68
2022/10/31 06:17:30;;;;;;;11.30;8.27;;;11.50;99.90;;;;;;6213618;23;20158;-67
2022/10/31 06:19:56;;;;;;;10.90;9.37;;;11.50;99.90;;;;;;6224774;23;20175;-68
2022/10/31 06:22:21;;;;;;;10.87;8.50;;;11.60;99.90;;;;;;6225040;23;20166;-68
2022/10/31 06:24:47;;;;;;;8.60;7.90;;;11.50;99.90;;;;;;6225049;23;20185;-68
2022/10/31 06:27:12;;;;;;;8.23;7.37;;;11.60;99.90;;;;;;6225257;23;20612;-68
2022/10/31 06:29:38;;;;;;;15.60;9.07;;;11.60;99.90;;;;;;6212931;23;20155;-68
2022/10/31 06:32:04;;;;;;;8.70;7.87;;;11.60;99.90;;;;;;6225019;22;20185;-68
2022/10/31 06:34:29;;;;;;;15.33;8.30;;;11.60;99.90;;;;;;6212727;23;20654;-68
2022/10/31 06:36:55;;;;;;;10.07;8.10;;;11.60;99.90;;;;;;6225559;23;20147;-68
2022/10/31 06:39:20;;;;;;;10.00;7.77;;;11.60;99.90;;;;;;6214707;23;20179;-67
2022/10/31 06:41:48;;;;;;;12.37;8.00;;;11.60;99.90;;;;;;6212965;23;20171;-66
2022/10/31 06:44:13;;;;;;;9.80;7.87;;;11.60;99.90;;;;;;6224881;23;20178;-67
2022/10/31 06:46:39;;;;;;;8.33;6.90;;;11.60;99.90;;;;;;6224617;23;20147;-66
2022/10/31 06:49:04;;;;;;;22.00;9.43;;;11.60;99.90;;;;;;6224732;23;20474;-67
2022/10/31 06:51:30;;;;;;;8.33;7.53;;;11.60;99.90;;;;;;6213216;23;20170;-67
2022/10/31 06:53:56;;;;;;;9.00;8.10;;;11.60;99.90;;;;;;6224912;23;20590;-67
2022/10/31 06:56:21;;;;;;;9.23;8.33;;;11.60;99.90;;;;;;6223364;23;20226;-67
2022/10/31 06:58:47;;;;;;;8.67;7.87;;;11.70;99.90;;;;;;6224257;23;20147;-67
2022/10/31 07:01:12;;;;;;;10.90;8.60;;;11.70;99.90;;;;;;6224739;23;20180;-67
2022/10/31 07:03:38;;;;;;;8.50;7.57;;;11.70;99.90;;;;;;6224203;23;20147;-67
2022/10/31 07:06:04;;;;;;;9.57;8.10;;;11.80;99.90;;;;;;6224672;23;20225;-66
2022/10/31 07:08:29;;;;;;;13.30;8.30;;;11.80;99.90;;;;;;6213050;23;20151;-67
2022/10/31 07:10:56;;;;;;;9.37;8.47;;;11.90;99.90;;;;;;6212196;23;20212;-66
2022/10/31 07:13:26;;;;;;;9.57;8.27;;;12.00;99.90;;;;;;6224390;23;20147;-66
2022/10/31 07:16:00;;;;;;;9.87;8.57;;;12.00;99.90;;;;;;6224392;23;20150;-66
2022/10/31 07:18:26;;;;;;;11.27;8.07;;;12.00;99.90;;;;;;6224582;23;20521;-68
2022/10/31 07:20:52;;;;;;;10.83;8.57;;;12.10;99.90;;;;;;6212226;23;20193;-67
2022/10/31 07:23:18;;;;;;;9.07;7.77;;;12.10;99.90;;;;;;6224973;23;20143;-66
2022/10/31 07:25:44;;;;;;;10.03;8.10;;;12.20;99.90;;;;;;6224402;23;20143;-66
2022/10/31 07:28:10;;;;;;;11.87;8.93;;;12.20;99.90;;;;;;6224514;23;20484;-66
2022/10/31 07:30:37;;;;;;;9.10;8.20;;;12.20;99.90;;;;;;6223606;23;20186;-67
2022/10/31 07:33:03;;;;;;;11.63;8.37;;;12.20;99.90;;;;;;6224642;23;20147;-67
2022/10/31 07:35:29;;;;;;;10.83;9.43;;;12.20;99.90;;;;;;6225316;23;20170;-67
2022/10/31 07:37:55;;;;;;;10.10;8.83;;;12.20;99.90;;;;;;6224964;23;20154;-67
2022/10/31 07:40:22;;;;;;;13.80;8.63;;;12.20;99.90;;;;;;6223791;23;20171;-67
2022/10/31 07:42:49;;;;;;;9.67;8.17;;;12.30;99.90;;;;;;6212134;23;20162;-67
2022/10/31 07:45:20;;;;;;;13.47;8.90;;;12.30;99.90;;;;;;6212731;23;20151;-68
2022/10/31 07:47:50;;;;;;;11.93;8.97;;;12.40;99.90;;;;;;6223993;23;20131;-67
2022/10/31 07:50:21;;;;;;;9.97;8.03;;;12.50;99.90;;;;;;6223984;23;20138;-67
2022/10/31 07:52:47;;;;;;;9.40;8.40;;;12.60;99.90;;;;;;6223906;23;20649;-67
2022/10/31 07:55:14;;;;;;;10.93;9.07;;;12.70;99.90;;;;;;6212578;23;20162;-67
2022/10/31 07:57:39;;;;;;;12.53;8.67;;;12.80;99.90;;;;;;6212013;23;20159;-67
2022/10/31 08:00:07;;;;;;;11.87;8.37;;;13.00;99.90;;;;;;6212027;23;20185;-67
2022/10/31 08:02:33;;;;;;;13.20;8.20;;;13.10;99.90;;;;;;6224335;23;20159;-68
2022/10/31 08:04:59;;;;;;;8.73;7.90;;;13.30;99.90;;;;;;6224180;23;20143;-68
2022/10/31 08:07:25;;;;;;;10.90;8.13;;;13.30;99.90;;;;;;6224018;23;20169;-68
2022/10/31 08:09:51;;;;;;;11.53;8.37;;;13.40;99.90;;;;;;6223461;23;20477;-67
2022/10/31 08:12:17;;;;;;;14.73;8.77;;;13.60;99.90;;;;;;6223913;23;20167;-68
2022/10/31 08:14:44;;;;;;;14.00;10.03;;;13.70;99.90;;;;;;6212451;23;20155;-67
2022/10/31 08:17:09;;;;;;;9.97;8.93;;;13.80;99.90;;;;;;6224072;23;20238;-67
2022/10/31 08:19:35;;;;;;;12.37;8.27;;;13.90;99.90;;;;;;6212209;23;20182;-67
2022/10/31 08:22:01;;;;;;;10.20;8.13;;;14.00;99.90;;;;;;6223776;23;20250;-68
2022/10/31 08:24:26;;;;;;;14.40;8.67;;;14.10;99.90;;;;;;6212604;23;20207;-67
2022/10/31 08:26:52;;;;;;;12.63;8.57;;;14.10;99.90;;;;;;6223555;23;20151;-68
2022/10/31 08:29:17;;;;;;;13.73;8.43;;;14.20;99.90;;;;;;6212101;23;20236;-67
2022/10/31 08:31:43;;;;;;;10.53;8.30;;;14.20;99.90;;;;;;6223221;22;20190;-67
2022/10/31 08:34:09;;;;;;;10.67;8.63;;;14.20;99.90;;;;;;6221675;23;20147;-67
2022/10/31 08:36:34;;;;;;;9.60;7.87;;;14.20;99.90;;;;;;6224055;23;20594;-67
2022/10/31 08:39:01;;;;;;;10.87;8.00;;;14.30;99.90;;;;;;6211955;23;20158;-68
2022/10/31 08:41:26;;;;;;;9.13;8.20;;;14.40;99.90;;;;;;6223008;23;20166;-67
2022/10/31 08:43:52;;;;;;;11.53;7.57;;;14.50;99.90;;;;;;6223705;23;20185;-68
2022/10/31 08:46:18;;;;;;;10.83;7.43;;;14.70;99.90;;;;;;6223772;23;20482;-67
2022/10/31 08:48:43;;;;;;;11.93;7.57;;;14.90;99.90;;;;;;6212219;23;20158;-67
2022/10/31 08:51:10;;;;;;;9.33;7.37;;;15.00;99.90;;;;;;6223397;23;20167;-67
2022/10/31 08:53:36;;;;;;;13.23;7.47;;;15.20;99.90;;;;;;6223679;23;20150;-67
2022/10/31 08:56:02;;;;;;;8.97;8.17;;;15.40;99.90;;;;;;6223574;23;20150;-67
2022/10/31 08:58:28;;;;;;;13.80;7.90;;;15.40;99.90;;;;;;6224278;23;20496;-68
2022/10/31 09:00:56;;;;;;;9.47;8.67;;;15.40;99.90;;;;;;6223005;23;20194;-67
2022/10/31 09:03:24;;;;;;;8.97;8.07;;;15.50;99.90;;;;;;6223831;23;20606;-67
2022/10/31 09:05:50;;;;;;;8.13;7.37;;;15.60;99.90;;;;;;6222423;23;20190;-68
2022/10/31 09:08:16;;;;;;;8.13;7.33;;;15.70;99.90;;;;;;6223791;23;20147;-68
2022/10/31 09:10:42;;;;;;;8.43;7.20;;;15.80;99.90;;;;;;6211414;23;20179;-68
2022/10/31 09:13:08;;;;;;;12.70;7.57;;;16.00;99.90;;;;;;6226891;23;20147;-68
2022/10/31 09:15:36;;;;;;;7.43;6.73;;;16.10;99.90;;;;;;6226648;23;20612;-68
2022/10/31 09:18:02;;;;;;;8.03;7.30;;;16.20;99.90;;;;;;6226981;23;20154;-68
2022/10/31 09:20:30;;;;;;;9.47;7.07;;;16.30;99.90;;;;;;6226443;23;20186;-67
2022/10/31 09:23:01;;;;;;;9.30;7.00;;;16.50;99.90;;;;;;6226841;23;20622;-67
2022/10/31 09:25:27;;;;;;;7.27;6.63;;;16.80;99.90;;;;;;6225617;23;20591;-66
2022/10/31 09:27:57;;;;;;;10.40;6.20;;;17.00;99.90;;;;;;6226811;23;20711;-67
2022/10/31 09:30:29;;;;;;;8.03;6.80;;;17.40;99.90;;;;;;6226693;23;20173;-69
2022/10/31 09:33:06;;;;;;;10.53;6.67;;;17.60;99.90;;;;;;6226800;23;20150;-68
2022/10/31 09:35:32;;;;;;;7.50;6.23;;;17.90;99.90;;;;;;6226858;23;20139;-67
2022/10/31 09:38:02;;;;;;;8.70;5.90;;;18.20;99.90;;;;;;6215579;23;20165;-67
2022/10/31 09:40:34;;;;;;;9.17;5.70;;;18.50;99.90;;;;;;6226338;23;20225;-67
2022/10/31 09:43:13;;;;;;;7.40;5.37;;;18.60;99.90;;;;;;6226525;23;20513;-68
2022/10/31 09:45:57;;;;;;;8.30;5.43;;;18.70;99.90;;;;;;6226939;23;20134;-67
2022/10/31 09:48:44;;;;;;;7.57;5.67;;;18.70;99.90;;;;;;6226592;23;20448;-67
2022/10/31 09:51:28;;;;;;;8.17;5.40;;;18.70;99.90;;;;;;6214620;23;20175;-68
2022/10/31 09:54:13;;;;;;;8.33;6.23;;;18.60;99.90;;;;;;6226324;23;20230;-68
2022/10/31 09:56:40;;;;;;;8.67;6.03;;;18.50;99.90;;;;;;6226330;23;20139;-68
2022/10/31 09:59:31;;;;;;;6.40;5.80;;;18.50;99.90;;;;;;6226484;23;20146;-68
2022/10/31 10:02:19;;;;;;;6.40;5.80;;;18.50;99.90;;;;;;6215743;23;20593;-68
2022/10/31 10:05:05;;;;;;;5.97;5.13;;;18.60;99.90;;;;;;6215535;23;20157;-67
2022/10/31 10:07:42;;;;;;;8.10;5.43;;;18.70;99.90;;;;;;6226570;23;20131;-67
2022/10/31 10:10:28;;;;;;;7.97;5.27;;;18.90;99.90;;;;;;6226437;23;20139;-67
2022/10/31 10:13:34;;;;;;;6.17;5.60;;;19.00;99.90;;;;;;6226558;23;20158;-67
2022/10/31 10:16:12;;;;;;;10.07;5.70;;;18.90;99.90;;;;;;6206573;23;20229;-67
2022/10/31 10:18:58;;;;;;;8.13;5.77;;;18.80;99.90;;;;;;6226282;23;20150;-67
2022/10/31 10:21:26;;;;;;;13.43;5.90;;;18.80;99.90;;;;;;6214614;23;20182;-67
2022/10/31 10:24:11;;;;;;;6.47;5.53;;;18.80;99.90;;;;;;6225036;23;20143;-67
2022/10/31 10:26:42;;;;;;;11.67;5.90;;;18.60;99.90;;;;;;6224682;23;20480;-68
2022/10/31 10:29:43;;;;;;;8.03;6.67;;;18.60;99.90;;;;;;6224346;23;20173;-67
2022/10/31 10:32:24;;;;;;;7.43;6.30;;;18.60;99.90;;;;;;6213212;23;20244;-67
2022/10/31 10:34:53;;;;;;;8.73;6.00;;;18.60;99.90;;;;;;6224653;23;20135;-67
2022/10/31 10:37:32;;;;;;;8.70;6.87;;;18.50;99.90;;;;;;6224826;23;20169;-67
2022/10/31 10:40:14;;;;;;;7.33;6.40;;;18.40;99.90;;;;;;6224320;23;20278;-67
2022/10/31 10:48:41;;;;;;;7.90;6.00;;;18.30;99.90;;;;;;6132340;23;20292;-67
2022/10/31 10:51:18;;;;;;;8.23;6.13;;;18.60;99.90;;;;;;6097688;23;20180;-68
2022/10/31 10:54:04;;;;;;;8.87;5.87;;;19.00;99.90;;;;;;6173475;23;20165;-68
2022/10/31 10:57:03;;;;;;;6.53;5.70;;;19.50;99.90;;;;;;6224546;23;20135;-68
2022/10/31 10:59:30;;;;;;;8.77;6.17;;;20.10;99.90;;;;;;6200185;23;20178;-68
2022/10/31 11:01:56;;;;;;;6.80;6.10;;;20.50;99.90;;;;;;6212591;23;20179;-68
2022/10/31 11:04:35;;;;;;;6.97;5.23;;;20.80;99.90;;;;;;6224453;23;20143;-68
2022/10/31 11:07:07;;;;;;;8.90;5.90;;;21.00;99.90;;;;;;6221987;23;20583;-67
2022/10/31 11:09:33;;;;;;;6.00;5.03;;;21.10;99.90;;;;;;6224134;23;20538;-67
2022/10/31 11:12:05;;;;;;;9.00;5.87;;;21.20;99.90;;;;;;6224146;23;20190;-68
2022/10/31 11:14:31;;;;;;;8.60;6.77;;;21.20;99.90;;;;;;6224608;23;20567;-66
2022/10/31 11:17:19;;;;;;;8.90;5.78;;;21.30;99.90;;;;;;6224257;23;20170;-66
2022/10/31 11:19:44;;;;;;;7.68;6.53;;;21.40;99.90;;;;;;6223884;23;20256;-67
2022/10/31 11:22:17;;;;;;;8.43;5.38;;;21.50;99.90;;;;;;6224203;23;20167;-66
2022/10/31 11:24:43;;;;;;;8.35;6.35;;;21.40;99.90;;;;;;6224985;23;20480;-66
2022/10/31 11:27:16;;;;;;;7.70;5.43;;;21.30;99.90;;;;;;6224385;23;20166;-67
2022/10/31 11:29:42;;;;;;;5.95;5.30;;;21.30;99.90;;;;;;6225894;23;20167;-67
2022/10/31 11:32:21;;;;;;;7.30;5.57;;;21.20;99.90;;;;;;6225500;23;20268;-67
2022/10/31 11:34:51;;;;;;;6.05;5.55;;;21.20;99.90;;;;;;6224530;23;20135;-67
2022/10/31 11:37:41;;;;;;;6.53;5.40;;;21.30;99.90;;;;;;6222078;23;20189;-67
2022/10/31 11:40:18;;;;;;;7.75;5.28;;;21.40;99.90;;;;;;6223948;23;20174;-67
2022/10/31 11:42:44;;;;;;;7.90;4.78;;;21.40;99.90;;;;;;6224042;23;20138;-67
2022/10/31 11:45:27;;;;;;;5.40;4.67;;;21.50;99.90;;;;;;6224184;23;20151;-67
2022/10/31 11:47:55;;;;;;;6.47;5.38;;;21.50;99.90;;;;;;6224017;23;20139;-67
2022/10/31 11:50:26;;;;;;;6.57;5.13;;;21.50;99.90;;;;;;6223820;23;20461;-67
2022/10/31 11:52:54;;;;;;;6.88;4.97;;;21.50;99.90;;;;;;6212393;23;20143;-67
2022/10/31 11:55:37;;;;;;;5.22;4.72;;;21.40;99.90;;;;;;6224509;23;20158;-67
2022/10/31 11:58:04;;;;;;;5.33;4.83;;;21.40;99.90;;;;;;6224147;23;20157;-67
2022/10/31 12:00:37;;;;;;;8.90;5.05;;;21.40;99.90;;;;;;6223823;23;20189;-67
2022/10/31 12:03:22;;;;;;;9.13;5.07;;;21.30;99.90;;;;;;6224008;23;20127;-66
2022/10/31 12:05:57;;;;;;;8.07;4.63;;;21.10;99.90;;;;;;6223758;23;20139;-67
2022/10/31 12:08:29;;;;;;;5.03;4.63;;;20.90;99.90;;;;;;6211943;23;20147;-66
2022/10/31 12:11:19;;;;;;;6.13;4.73;;;20.60;99.90;;;;;;6211476;23;20178;-66
2022/10/31 12:14:01;;;;;;;11.13;4.73;;;20.30;99.90;;;;;;6223812;23;20741;-67
2022/10/31 12:16:30;;;;;;;12.13;4.70;;;20.10;99.90;;;;;;6212199;23;20154;-67
2022/10/31 12:19:09;;;;;;;7.43;5.47;;;20.00;99.90;;;;;;6222019;23;20492;-66
2022/10/31 12:21:48;;;;;;;5.40;4.90;;;19.90;99.90;;;;;;6223057;23;20157;-67
2022/10/31 12:24:38;;;;;;;4.93;4.53;;;20.10;99.90;;;;;;6223826;23;20519;-67
2022/10/31 12:27:12;;;;;;;5.40;4.60;;;20.20;99.90;;;;;;6224438;23;20163;-66
2022/10/31 12:30:00;;;;;;;5.03;4.57;;;20.10;99.90;;;;;;6223235;23;20179;-66
2022/10/31 12:32:29;;;;;;;13.27;4.93;;;20.00;99.90;;;;;;6223700;23;20190;-67
2022/10/31 12:35:23;;;;;;;8.93;4.60;;;20.00;99.90;;;;;;6223380;23;20147;-65
2022/10/31 12:38:10;;;;;;;5.97;4.83;;;19.90;99.90;;;;;;6205824;23;20186;-66
2022/10/31 12:40:59;;;;;;;6.77;5.30;;;19.70;99.90;;;;;;6220565;23;20677;-67
2022/10/31 12:43:47;;;;;;;4.50;4.20;;;19.70;99.90;;;;;;6223843;23;20210;-67
2022/10/31 12:46:35;;;;;;;5.23;4.73;;;19.70;99.90;;;;;;6223582;23;20602;-67
2022/10/31 12:49:27;;;;;;;5.53;4.80;;;19.60;99.90;;;;;;6202443;23;20555;-67
2022/10/31 12:52:14;;;;;;;5.00;4.60;;;19.60;99.90;;;;;;6223338;23;20167;-67
2022/10/31 12:54:55;;;;;;;5.17;4.70;;;19.60;99.90;;;;;;6223482;23;20131;-67
2022/10/31 12:57:35;;;;;;;10.13;4.70;;;19.60;99.90;;;;;;6223635;23;20138;-67
2022/10/31 13:00:15;;;;;;;4.90;4.60;;;19.70;99.90;;;;;;6223176;23;20239;-66
2022/10/31 13:03:01;;;;;;;9.10;5.17;;;19.80;99.90;;;;;;6211809;23;20475;-67
2022/10/31 13:05:40;;;;;;;5.60;5.03;;;19.80;99.90;;;;;;6212183;23;20143;-68
2022/10/31 13:08:41;;;;;;;4.57;4.27;;;19.80;99.90;;;;;;6223621;23;20127;-66
2022/10/31 13:11:10;;;;;;;6.53;4.43;;;19.80;99.90;;;;;;6208148;23;20185;-66